createdAt,value
2019-04-16T00:02:41.399Z,15.07
2019-04-16T00:05:32.436Z,15.00
2019-04-16T00:08:14.120Z,13.40
2019-04-16T00:10:49.095Z,14.07
2019-04-16T00:13:27.877Z,11.80
2019-04-16T00:15:57.998Z,12.73
2019-04-16T00:18:27.765Z,14.77
2019-04-16T00:21:25.376Z,10.40
2019-04-16T00:24:18.279Z,10.30
2019-04-16T00:26:46.703Z,12.50
2019-04-16T00:29:17.822Z,14.10
2019-04-16T00:31:54.223Z,14.37
2019-04-16T00:34:24.381Z,17.20
2019-04-16T00:36:53.886Z,12.90
2019-04-16T00:39:24.931Z,13.43
2019-04-16T00:41:54.991Z,16.00
2019-04-16T00:44:24.468Z,12.23
2019-04-16T00:46:53.681Z,12.73
2019-04-16T00:49:26.271Z,12.57
2019-04-16T00:51:54.746Z,13.97
2019-04-16T00:54:24.303Z,15.00
2019-04-16T00:56:54.845Z,17.03
2019-04-16T00:59:24.963Z,12.53
2019-04-16T01:01:55.175Z,15.10
2019-04-16T01:04:24.916Z,13.70
2019-04-16T01:06:54.123Z,13.03
2019-04-16T01:09:23.616Z,17.20
2019-04-16T01:11:53.694Z,17.30
2019-04-16T01:14:24.288Z,12.87
2019-04-16T01:16:54.635Z,15.07
2019-04-16T01:19:24.212Z,13.20
2019-04-16T01:21:53.656Z,13.23
2019-04-16T01:24:22.873Z,14.73
2019-04-16T01:26:52.170Z,13.43
2019-04-16T01:29:21.391Z,14.23
2019-04-16T01:32:19.236Z,17.23
2019-04-16T01:35:03.514Z,15.07
2019-04-16T01:37:56.524Z,12.70
2019-04-16T01:40:29.265Z,14.10
2019-04-16T01:42:59.824Z,16.63
2019-04-16T01:45:30.417Z,14.60
2019-04-16T01:48:00.228Z,14.80
2019-04-16T01:50:30.320Z,14.53
2019-04-16T01:52:59.652Z,16.10
2019-04-16T01:55:29.283Z,12.73
2019-04-16T01:57:59.639Z,14.93
2019-04-16T02:00:31.607Z,15.70
2019-04-16T02:03:01.199Z,15.13
2019-04-16T02:05:38.240Z,13.97
2019-04-16T02:08:05.624Z,14.63
2019-04-16T02:10:38.479Z,17.48
2019-04-16T02:13:07.001Z,13.30
2019-04-16T02:15:36.263Z,17.23
2019-04-16T02:18:06.692Z,15.13
2019-04-16T02:20:39.501Z,13.63
2019-04-16T02:23:08.408Z,15.27
2019-04-16T02:25:38.834Z,17.67
2019-04-16T02:28:08.568Z,16.33
2019-04-16T02:30:39.836Z,17.13
2019-04-16T02:33:09.642Z,14.53
2019-04-16T02:35:39.306Z,15.57
2019-04-16T02:38:12.311Z,15.63
2019-04-16T02:40:40.339Z,14.93
2019-04-16T02:43:11.917Z,13.23
2019-04-16T02:45:41.213Z,16.27
2019-04-16T02:48:15.635Z,15.13
2019-04-16T02:50:48.269Z,13.73
2019-04-16T02:53:48.348Z,16.10
2019-04-16T02:56:40.033Z,15.57
2019-04-16T02:59:16.311Z,14.50
2019-04-16T03:02:05.531Z,16.43
2019-04-16T03:04:39.813Z,19.80
2019-04-16T03:07:09.552Z,18.27
2019-04-16T03:09:40.181Z,13.97
2019-04-16T03:12:11.174Z,14.60
2019-04-16T03:14:42.328Z,16.63
2019-04-16T03:17:42.935Z,15.03
2019-04-16T03:20:14.514Z,15.03
2019-04-16T03:22:43.785Z,15.97
2019-04-16T03:25:14.387Z,15.23
2019-04-16T03:27:45.182Z,15.97
2019-04-16T03:30:17.780Z,14.27
2019-04-16T03:32:49.407Z,17.20
2019-04-16T03:35:18.816Z,15.83
2019-04-16T03:37:48.567Z,18.37
2019-04-16T03:40:24.227Z,15.40
2019-04-16T03:42:50.909Z,17.37
2019-04-16T03:45:20.914Z,15.07
2019-04-16T03:47:51.334Z,18.03
2019-04-16T03:50:21.490Z,18.03
2019-04-16T03:52:51.166Z,17.37
2019-04-16T03:55:24.966Z,17.00
2019-04-16T03:57:52.285Z,15.40
2019-04-16T04:00:22.060Z,14.87
2019-04-16T04:02:55.418Z,17.40
2019-04-16T04:05:25.166Z,15.88
2019-04-16T04:07:55.472Z,15.20
2019-04-16T04:10:30.942Z,16.80
2019-04-16T04:12:56.507Z,17.40
2019-04-16T04:15:27.226Z,17.37
2019-04-16T04:17:56.659Z,16.97
2019-04-16T04:20:26.298Z,14.67
2019-04-16T04:22:57.080Z,18.03
2019-04-16T04:25:27.692Z,14.90
2019-04-16T04:27:57.147Z,17.03
2019-04-16T04:30:29.503Z,15.70
2019-04-16T04:32:59.912Z,18.53
2019-04-16T04:35:29.211Z,16.17
2019-04-16T04:38:00.774Z,17.00
2019-04-16T04:40:43.900Z,17.17
2019-04-16T04:43:01.732Z,18.00
2019-04-16T04:45:31.784Z,17.30
2019-04-16T04:48:01.208Z,14.87
2019-04-16T04:50:32.453Z,17.77
2019-04-16T04:53:02.328Z,18.77
2019-04-16T04:55:32.694Z,17.03
2019-04-16T04:58:02.816Z,15.77
2019-04-16T05:00:33.506Z,17.87
2019-04-16T05:03:02.811Z,15.53
2019-04-16T05:05:44.312Z,16.70
2019-04-16T05:08:13.933Z,15.00
2019-04-16T05:10:45.345Z,20.77
2019-04-16T05:13:15.416Z,18.03
2019-04-16T05:15:45.174Z,18.60
2019-04-16T05:18:17.434Z,17.83
2019-04-16T05:20:47.692Z,16.97
2019-04-16T05:23:24.836Z,15.33
2019-04-16T05:25:51.185Z,17.63
2019-04-16T05:28:20.958Z,20.43
2019-04-16T05:30:53.226Z,19.37
2019-04-16T05:33:23.966Z,16.87
2019-04-16T05:35:55.332Z,21.37
2019-04-16T05:38:28.197Z,18.13
2019-04-16T05:41:12.251Z,16.73
2019-04-16T05:43:30.223Z,20.70
2019-04-16T05:46:00.764Z,18.17
2019-04-16T05:48:33.361Z,15.30
2019-04-16T05:51:02.866Z,15.77
2019-04-16T05:53:33.147Z,16.67
2019-04-16T05:56:26.439Z,23.17
2019-04-16T05:58:55.946Z,18.57
2019-04-16T06:01:45.449Z,15.90
2019-04-16T06:04:15.390Z,19.77
2019-04-16T06:06:46.269Z,17.00
2019-04-16T06:09:15.923Z,15.80
2019-04-16T06:11:45.608Z,15.00
2019-04-16T06:14:40.538Z,20.30
2019-04-16T06:17:32.213Z,20.60
2019-04-16T06:20:21.393Z,15.80
2019-04-16T06:23:17.015Z,14.10
2019-04-16T06:25:58.947Z,18.47
2019-04-16T06:28:46.219Z,20.27
2019-04-16T06:31:44.946Z,14.73
2019-04-16T06:34:37.309Z,14.47
2019-04-16T06:37:20.397Z,16.93
2019-04-16T06:40:01.055Z,20.97
2019-04-16T06:42:40.501Z,23.33
2019-04-16T06:45:21.687Z,17.90
2019-04-16T06:48:24.066Z,18.53
2019-04-16T06:51:22.002Z,17.57
2019-04-16T06:54:12.033Z,15.87
2019-04-16T06:56:50.373Z,19.97
2019-04-16T06:59:37.384Z,15.10
2019-04-16T07:02:31.668Z,17.00
2019-04-16T07:05:18.255Z,14.70
2019-04-16T07:08:06.151Z,16.53
2019-04-16T07:10:44.644Z,16.07
2019-04-16T07:13:11.410Z,17.67
2019-04-16T07:15:41.550Z,15.47
2019-04-16T07:18:11.566Z,19.30
2019-04-16T07:20:45.441Z,16.37
2019-04-16T07:23:13.680Z,16.73
2019-04-16T07:25:44.232Z,16.80
2019-04-16T07:28:39.648Z,14.93
2019-04-16T07:31:31.833Z,15.63
2019-04-16T07:33:55.219Z,16.70
2019-04-16T07:36:45.405Z,16.63
2019-04-16T07:39:37.277Z,21.73
2019-04-16T07:42:21.370Z,15.40
2019-04-16T07:45:11.391Z,16.33
2019-04-16T07:48:09.101Z,16.83
2019-04-16T07:51:13.390Z,16.53
2019-04-16T07:54:03.983Z,17.83
2019-04-16T07:56:38.443Z,15.63
2019-04-16T07:59:08.021Z,18.93
2019-04-16T08:01:37.370Z,16.37
2019-04-16T08:04:06.674Z,14.37
2019-04-16T08:06:45.898Z,15.43
2019-04-16T08:09:11.161Z,15.57
2019-04-16T08:11:49.759Z,18.17
2019-04-16T08:14:21.107Z,15.37
2019-04-16T08:16:51.066Z,17.07
2019-04-16T08:19:36.024Z,14.87
2019-04-16T08:21:54.691Z,22.17
2019-04-16T08:24:34.710Z,17.50
2019-04-16T08:27:01.761Z,15.43
2019-04-16T08:29:38.737Z,15.33
2019-04-16T08:32:12.867Z,18.23
2019-04-16T08:34:42.089Z,17.17
2019-04-16T08:37:15.899Z,20.33
2019-04-16T08:39:54.722Z,17.80
2019-04-16T08:42:29.486Z,15.53
2019-04-16T08:45:07.591Z,16.83
2019-04-16T08:47:29.631Z,15.83
2019-04-16T08:49:59.605Z,17.77
2019-04-16T08:52:28.880Z,19.23
2019-04-16T08:54:58.238Z,17.23
2019-04-16T08:57:31.810Z,17.03
2019-04-16T09:00:00.778Z,16.90
2019-04-16T09:02:30.273Z,15.93
2019-04-16T09:05:05.989Z,20.83
2019-04-16T09:07:42.779Z,20.17
2019-04-16T09:10:18.514Z,15.20
2019-04-16T09:13:01.980Z,17.27
2019-04-16T09:15:27.347Z,22.43
2019-04-16T09:18:21.738Z,16.40
2019-04-16T09:20:51.163Z,16.13
2019-04-16T09:23:22.871Z,16.83
2019-04-16T09:26:15.628Z,15.33
2019-04-16T09:28:53.492Z,16.40
2019-04-16T09:31:48.216Z,17.37
2019-04-16T09:34:30.093Z,18.73
2019-04-16T09:37:20.677Z,15.07
2019-04-16T09:40:16.673Z,16.40
2019-04-16T09:42:39.839Z,15.47
2019-04-16T09:45:11.341Z,17.27
2019-04-16T09:47:41.174Z,20.53
2019-04-16T09:50:11.526Z,18.00
2019-04-16T09:52:41.425Z,18.23
2019-04-16T09:55:10.697Z,18.30
2019-04-16T09:57:40.329Z,16.13
2019-04-16T10:00:17.102Z,18.67
2019-04-16T10:02:47.562Z,19.90
2019-04-16T10:05:17.298Z,18.30
2019-04-16T10:07:46.706Z,18.97
2019-04-16T10:10:16.165Z,17.13
2019-04-16T10:12:45.477Z,21.97
2019-04-16T10:15:16.174Z,19.00
2019-04-16T10:17:45.822Z,21.30
2019-04-16T10:20:15.442Z,16.33
2019-04-16T10:22:45.052Z,18.23
2019-04-16T10:25:16.628Z,15.77
2019-04-16T10:28:05.740Z,18.53
2019-04-16T10:30:39.350Z,17.53
2019-04-16T10:33:08.778Z,18.13
2019-04-16T10:35:38.155Z,21.30
2019-04-16T10:38:17.802Z,18.53
2019-04-16T10:40:53.162Z,17.47
2019-04-16T10:43:45.259Z,18.30
2019-04-16T10:46:34.672Z,23.10
2019-04-16T10:49:09.607Z,22.23
2019-04-16T10:52:07.265Z,17.23
2019-04-16T10:54:43.991Z,21.17
2019-04-16T10:57:32.282Z,21.20
2019-04-16T11:00:15.163Z,22.57
2019-04-16T11:02:55.059Z,21.47
2019-04-16T11:05:39.376Z,21.57
2019-04-16T11:08:13.741Z,19.57
2019-04-16T11:10:43.347Z,18.83
2019-04-16T11:13:25.184Z,19.33
2019-04-16T11:15:55.779Z,20.13
2019-04-16T11:18:25.079Z,21.80
2019-04-16T11:20:55.621Z,19.97
2019-04-16T11:23:25.338Z,22.13
2019-04-16T11:25:54.932Z,22.20
2019-04-16T11:28:24.344Z,23.63
2019-04-16T11:30:55.546Z,19.97
2019-04-16T11:33:27.528Z,19.00
2019-04-16T11:35:56.729Z,19.97
2019-04-16T11:38:26.263Z,23.43
2019-04-16T11:40:55.702Z,23.63
2019-04-16T11:43:24.969Z,20.83
2019-04-16T11:45:55.287Z,19.27
2019-04-16T11:48:24.797Z,21.97
2019-04-16T11:50:54.102Z,23.20
2019-04-16T11:53:23.936Z,21.50
2019-04-16T11:55:53.899Z,21.13
2019-04-16T11:58:33.630Z,22.43
2019-04-16T12:01:12.414Z,24.83
2019-04-16T12:04:00.912Z,23.57
2019-04-16T12:06:49.331Z,23.30
2019-04-16T12:09:37.814Z,27.47
2019-04-16T12:12:40.678Z,22.00
2019-04-16T12:15:29.187Z,22.33
2019-04-16T12:18:06.372Z,23.03
2019-04-16T12:20:57.973Z,20.53
2019-04-16T12:23:55.320Z,26.80
2019-04-16T12:26:41.697Z,29.67
2019-04-16T12:29:30.309Z,22.87
2019-04-16T12:32:27.926Z,18.80
2019-04-16T12:35:31.076Z,21.07
2019-04-16T12:38:12.723Z,23.17
2019-04-16T12:41:01.224Z,25.33
2019-04-16T12:43:44.598Z,22.77
2019-04-16T12:46:18.210Z,23.25
2019-04-16T12:49:06.670Z,19.87
2019-04-16T12:51:45.833Z,24.00
2019-04-16T12:54:37.909Z,21.47
2019-04-16T12:57:21.603Z,21.60
2019-04-16T13:00:15.270Z,23.40
2019-04-16T13:03:06.731Z,27.27
2019-04-16T13:05:50.905Z,22.67
2019-04-16T13:08:42.754Z,23.13
2019-04-16T13:11:22.306Z,23.97
2019-04-16T13:14:23.643Z,24.83
2019-04-16T13:17:27.016Z,22.47
2019-04-16T13:20:29.336Z,24.33
2019-04-16T13:22:57.404Z,23.93
2019-04-16T13:25:35.865Z,21.53
2019-04-16T13:28:06.001Z,28.60
2019-04-16T13:30:36.144Z,21.60
2019-04-16T13:33:05.601Z,23.17
2019-04-16T13:35:35.591Z,21.77
2019-04-16T13:38:09.598Z,20.93
2019-04-16T13:40:41.510Z,24.70
2019-04-16T13:43:13.354Z,24.47
2019-04-16T13:45:43.185Z,20.80
2019-04-16T13:48:27.606Z,21.03
2019-04-16T13:51:00.218Z,30.87
2019-04-16T13:54:06.842Z,23.93
2019-04-16T13:56:43.299Z,34.97
2019-04-16T13:59:49.812Z,22.00
2019-04-16T14:02:38.357Z,23.37
2019-04-16T14:05:11.207Z,24.90
2019-04-16T14:07:42.105Z,24.30
2019-04-16T14:10:15.577Z,21.93
2019-04-16T14:12:45.635Z,23.33
2019-04-16T14:15:30.856Z,22.03
2019-04-16T14:17:52.918Z,31.03
2019-04-16T14:20:18.744Z,24.53
2019-04-16T14:22:53.540Z,23.73
2019-04-16T14:25:24.073Z,25.67
2019-04-16T14:28:03.192Z,22.57
2019-04-16T14:30:35.912Z,30.10
2019-04-16T14:33:10.897Z,26.67
2019-04-16T14:35:40.743Z,24.77
2019-04-16T14:38:18.046Z,28.67
2019-04-16T14:40:50.013Z,24.53
2019-04-16T14:43:23.125Z,26.03
2019-04-16T14:45:59.142Z,27.60
2019-04-16T14:48:27.947Z,24.20
2019-04-16T14:50:58.780Z,27.07
2019-04-16T14:53:46.230Z,30.23
2019-04-16T14:56:20.973Z,28.47
2019-04-16T14:59:05.220Z,31.20
2019-04-16T15:01:54.281Z,26.75
2019-04-16T15:04:59.621Z,25.93
2019-04-16T15:07:43.867Z,24.73
2019-04-16T15:10:33.963Z,29.20
2019-04-16T15:13:24.185Z,25.30
2019-04-16T15:16:14.307Z,28.90
2019-04-16T15:19:02.010Z,24.23
2019-04-16T15:21:43.059Z,23.33
2019-04-16T15:24:36.904Z,30.40
2019-04-16T15:27:28.191Z,26.20
2019-04-16T15:30:28.291Z,28.67
2019-04-16T15:33:20.079Z,28.50
2019-04-16T15:35:55.309Z,26.20
2019-04-16T15:38:49.030Z,29.32
2019-04-16T15:41:25.429Z,31.07
2019-04-16T15:44:42.541Z,28.83
2019-04-16T15:48:05.172Z,32.07
2019-04-16T15:51:03.447Z,26.33
2019-04-16T15:53:43.663Z,29.30
2019-04-16T15:56:42.217Z,24.90
2019-04-16T15:59:14.395Z,30.07
2019-04-16T16:02:02.939Z,36.07
2019-04-16T16:04:53.390Z,30.37
2019-04-16T16:07:43.450Z,29.40
2019-04-16T16:10:47.834Z,30.23
2019-04-16T16:13:22.854Z,28.53
2019-04-16T16:15:54.105Z,28.10
2019-04-16T16:19:01.627Z,27.33
2019-04-16T16:24:29.846Z,28.47
2019-04-16T16:27:09.811Z,29.53
2019-04-16T16:29:49.522Z,31.70
2019-04-16T16:32:34.314Z,30.97
2019-04-16T16:35:07.369Z,27.43
2019-04-16T16:37:44.060Z,27.17
2019-04-16T16:40:31.372Z,31.33
2019-04-16T16:43:08.187Z,30.47
2019-04-16T16:46:04.372Z,28.23
2019-04-16T16:48:56.944Z,28.07
2019-04-16T16:51:38.880Z,25.20
2019-04-16T16:54:26.397Z,27.37
2019-04-16T16:57:11.532Z,29.23
2019-04-16T17:00:11.480Z,30.05
2019-04-16T17:03:21.825Z,32.03
2019-04-16T17:06:06.567Z,29.63
2019-04-16T17:08:41.978Z,29.30
2019-04-16T17:11:31.822Z,32.23
2019-04-16T17:14:07.801Z,27.77
2019-04-16T17:17:14.996Z,29.00
2019-04-16T17:22:25.226Z,29.03
2019-04-16T17:25:00.055Z,28.60
2019-04-16T17:27:34.336Z,28.83
2019-04-16T17:30:08.877Z,26.67
2019-04-16T17:32:39.124Z,30.90
2019-04-16T17:35:27.668Z,26.97
2019-04-16T17:38:03.046Z,31.73
2019-04-16T17:40:57.774Z,33.87
2019-04-16T17:43:59.801Z,33.43
2019-04-16T17:46:36.775Z,28.33
2019-04-16T17:49:19.605Z,29.33
2019-04-16T17:51:56.601Z,25.90
2019-04-16T17:54:37.887Z,27.00
2019-04-16T17:57:16.612Z,25.73
2019-04-16T18:00:06.447Z,25.67
2019-04-16T18:02:55.795Z,30.20
2019-04-16T18:05:35.466Z,27.60
2019-04-16T18:08:22.772Z,25.17
2019-04-16T18:11:10.035Z,26.87
2019-04-16T18:14:10.792Z,27.07
2019-04-16T18:17:08.957Z,29.33
2019-04-16T18:20:00.513Z,25.50
2019-04-16T18:22:38.525Z,27.97
2019-04-16T18:25:25.785Z,30.33
2019-04-16T18:37:32.597Z,26.70
2019-04-16T18:40:43.339Z,27.80
2019-04-16T18:44:02.813Z,27.00
2019-04-16T18:47:11.056Z,28.40
2019-04-16T18:49:44.059Z,25.53
2019-04-16T18:52:30.104Z,26.67
2019-04-16T18:55:03.124Z,29.27
2019-04-16T18:58:22.057Z,27.03
2019-04-16T19:01:07.630Z,27.73
2019-04-16T19:03:48.661Z,33.73
2019-04-16T19:06:23.615Z,26.73
2019-04-16T19:08:53.421Z,29.47
2019-04-16T19:11:24.709Z,29.83
2019-04-16T19:13:54.224Z,27.27
2019-04-16T19:16:28.777Z,28.57
2019-04-16T19:19:00.548Z,27.30
2019-04-16T19:21:36.291Z,27.53
2019-04-16T19:24:10.158Z,31.43
2019-04-16T19:26:52.686Z,27.93
2019-04-16T19:29:28.617Z,27.40
2019-04-16T19:31:58.334Z,30.40
2019-04-16T19:34:29.073Z,32.93
2019-04-16T19:37:00.828Z,29.93
2019-04-16T19:39:31.085Z,32.57
2019-04-16T19:42:00.908Z,29.13
2019-04-16T19:44:39.609Z,30.80
2019-04-16T19:47:07.324Z,30.03
2019-04-16T19:49:40.936Z,38.13
2019-04-16T19:52:10.609Z,29.70
2019-04-16T19:54:40.269Z,28.67
2019-04-16T19:57:12.865Z,27.93
2019-04-16T19:59:50.438Z,28.80
2019-04-16T20:02:34.902Z,32.10
2019-04-16T20:05:03.309Z,28.30
2019-04-16T20:07:36.712Z,25.90
2019-04-16T20:10:28.288Z,29.07
2019-04-16T20:13:05.967Z,29.27
2019-04-16T20:15:37.086Z,32.47
2019-04-16T20:18:09.296Z,28.43
2019-04-16T20:20:41.458Z,32.17
2019-04-16T20:23:11.020Z,31.33
2019-04-16T20:25:46.352Z,29.33
2019-04-16T20:28:16.398Z,29.33
2019-04-16T20:30:46.234Z,27.83
2019-04-16T20:33:15.804Z,25.80
2019-04-16T20:35:50.542Z,26.10
2019-04-16T20:38:20.051Z,31.27
2019-04-16T20:40:51.285Z,28.60
2019-04-16T20:43:21.089Z,26.43
2019-04-16T20:45:50.390Z,28.00
2019-04-16T20:48:20.025Z,25.27
2019-04-16T20:50:52.714Z,28.43
2019-04-16T20:53:20.481Z,30.20
2019-04-16T20:55:49.958Z,27.20
2019-04-16T20:58:19.760Z,27.33
2019-04-16T21:00:53.942Z,27.90
2019-04-16T21:03:31.248Z,27.73
2019-04-16T21:06:07.454Z,25.77
2019-04-16T21:08:41.477Z,26.37
2019-04-16T21:11:16.793Z,28.93
2019-04-16T21:13:56.653Z,25.77
2019-04-16T21:16:26.227Z,32.30
2019-04-16T21:18:57.951Z,25.77
2019-04-16T21:21:27.866Z,27.00
2019-04-16T21:23:59.527Z,29.63
2019-04-16T21:26:31.005Z,33.50
2019-04-16T21:29:10.095Z,30.60
2019-04-16T21:31:48.422Z,26.27
2019-04-16T21:34:37.523Z,26.97
2019-04-16T21:37:25.370Z,22.97
2019-04-16T21:40:23.433Z,21.57
2019-04-16T21:42:57.148Z,22.67
2019-04-16T21:45:37.754Z,18.40
2019-04-16T21:48:13.166Z,17.67
2019-04-16T21:50:44.562Z,14.23
2019-04-16T21:53:14.401Z,14.13
2019-04-16T21:55:49.140Z,14.27
2019-04-16T21:58:19.364Z,11.87
2019-04-16T22:01:06.933Z,14.27
2019-04-16T22:03:42.234Z,15.47
2019-04-16T22:06:12.414Z,11.77
2019-04-16T22:08:42.523Z,11.77
2019-04-16T22:11:12.685Z,11.70
2019-04-16T22:13:50.418Z,10.20
2019-04-16T22:16:21.972Z,12.13
2019-04-16T22:18:53.862Z,11.90
2019-04-16T22:21:24.524Z,9.93
2019-04-16T22:23:59.044Z,12.00
2019-04-16T22:26:34.558Z,11.00
2019-04-16T22:29:03.251Z,10.47
2019-04-16T22:31:33.598Z,11.27
2019-04-16T22:34:08.455Z,14.17
2019-04-16T22:36:38.703Z,9.20
2019-04-16T22:39:35.052Z,11.20
2019-04-16T22:42:23.077Z,10.07
2019-04-16T22:45:26.601Z,11.27
2019-04-16T22:47:56.630Z,10.63
2019-04-16T22:50:26.725Z,9.73
2019-04-16T22:52:56.334Z,9.77
2019-04-16T22:55:26.108Z,10.90
2019-04-16T22:57:55.774Z,11.33
2019-04-16T23:00:34.273Z,9.20
2019-04-16T23:03:04.076Z,11.03
2019-04-16T23:05:35.241Z,10.37
2019-04-16T23:08:04.778Z,14.10
2019-04-16T23:10:34.919Z,9.83
2019-04-16T23:13:04.908Z,10.83
2019-04-16T23:15:38.065Z,11.20
2019-04-16T23:18:07.870Z,10.47
2019-04-16T23:20:39.024Z,12.37
2019-04-16T23:23:08.810Z,11.03
2019-04-16T23:25:39.277Z,10.47
2019-04-16T23:28:10.641Z,8.57
2019-04-16T23:30:40.389Z,10.90
2019-04-16T23:33:10.806Z,9.87
2019-04-16T23:35:44.306Z,9.97
2019-04-16T23:38:14.115Z,10.87
2019-04-16T23:40:44.196Z,10.20
2019-04-16T23:43:33.412Z,8.00
2019-04-16T23:46:34.648Z,9.10
2019-04-16T23:49:34.857Z,8.53
2019-04-16T23:52:16.273Z,7.47
2019-04-16T23:54:58.656Z,10.47
2019-04-16T23:57:35.885Z,7.73
